Time;durP1;ratioP1;P1;durP2;ratioP2;P2;SDS_P1;SDS_P2;PMS_P1;PMS_P2;Temp;Humidity;BMP_temperature;BMP_pressure;BME280_temperature;BME280_humidity;BME280_pressure;Samples;Min_cycle;Max_cycle;Signal;HPM_P1;HPM_P2
2021/06/27 00:00:15;;;;;;;5.97;4.22;;;;;;;14.07;82.90;101078.88;5072258;28;20048;-68
2021/06/27 00:02:42;;;;;;;7.38;3.95;;;;;;;14.09;83.03;101076.16;5072659;28;20052;-69
2021/06/27 00:05:10;;;;;;;;;;;;;;;14.41;81.34;101076.69;5072612;28;20048;-69
2021/06/27 00:07:37;;;;;;;6.13;3.90;;;;;;;14.37;81.14;101073.41;5072367;28;19947;-69
2021/06/27 00:10:08;;;;;;;7.68;4.00;;;;;;;14.14;82.83;101069.69;5071999;28;20080;-69
2021/06/27 00:12:36;;;;;;;7.38;3.88;;;;;;;13.97;84.03;101076.94;5072072;28;20048;-69
2021/06/27 00:15:05;;;;;;;5.15;4.00;;;;;;;14.09;83.29;101078.78;5071908;28;20049;-69
2021/06/27 00:17:32;;;;;;;6.57;3.90;;;;;;;14.06;83.03;101073.75;5072208;28;20429;-68
2021/06/27 00:19:58;;;;;;;;;;;;;;;14.12;82.81;101074.16;5072546;28;20059;-69
2021/06/27 00:22:25;;;;;;;5.78;4.05;;;;;;;13.98;83.55;101069.00;5071665;28;19920;-69
2021/06/27 00:24:52;;;;;;;6.00;4.00;;;;;;;14.03;82.96;101076.56;5071943;28;20055;-69
2021/06/27 00:27:19;;;;;;;7.32;3.85;;;;;;;14.04;82.98;101068.59;5071955;28;20049;-69
2021/06/27 00:29:48;;;;;;;6.47;3.85;;;;;;;14.14;81.97;101064.44;5072331;28;20084;-68
2021/06/27 00:32:15;;;;;;;5.00;3.80;;;;;;;14.12;82.11;101066.31;5071827;28;20045;-69
2021/06/27 00:34:42;;;;;;;5.18;4.10;;;;;;;14.06;82.10;101063.28;5071828;28;20057;-69
2021/06/27 00:37:09;;;;;;;4.93;4.20;;;;;;;13.97;82.87;101069.09;5071768;28;20068;-68
2021/06/27 00:39:36;;;;;;;;;;;;;;;14.07;82.67;101073.63;5072385;28;20048;-69
2021/06/27 00:42:03;;;;;;;6.63;4.50;;;;;;;14.20;81.43;101070.22;5071994;28;19943;-69
2021/06/27 00:44:30;;;;;;;4.85;3.47;;;;;;;14.20;81.46;101065.81;5071684;28;20056;-68
2021/06/27 00:46:58;;;;;;;4.90;3.85;;;;;;;14.19;81.46;101064.16;5071750;28;20056;-69
2021/06/27 00:49:25;;;;;;;6.53;3.88;;;;;;;14.02;82.17;101065.25;5075171;28;20053;-69
2021/06/27 00:51:51;;;;;;;;;;;;;;;14.00;81.93;101067.13;5076268;28;20045;-69
2021/06/27 00:54:18;;;;;;;6.60;3.92;;;;;;;14.01;82.49;101067.97;5075476;28;19925;-69
2021/06/27 00:56:46;;;;;;;7.18;4.45;;;;;;;13.82;83.61;101063.94;5075636;28;20068;-69
2021/06/27 00:59:13;;;;;;;5.72;3.58;;;;;;;13.81;83.48;101070.06;5075664;28;20052;-69
2021/06/27 01:01:40;;;;;;;7.60;3.85;;;;;;;13.78;83.02;101065.03;5075759;28;20049;-69
2021/06/27 01:04:08;;;;;;;4.60;3.55;;;;;;;13.77;83.09;101059.91;5075825;28;20052;-69
2021/06/27 01:06:36;;;;;;;6.47;3.97;;;;;;;13.91;82.74;101060.69;5075643;28;20049;-68
2021/06/27 01:09:04;;;;;;;6.05;3.92;;;;;;;14.06;82.17;101058.06;5075295;28;20410;-69
2021/06/27 01:11:32;;;;;;;8.43;4.45;;;;;;;13.76;83.90;101069.53;5075095;28;20415;-69
2021/06/27 01:14:01;;;;;;;4.75;3.95;;;;;;;14.01;82.55;101073.22;5075796;28;20059;-69
2021/06/27 01:16:28;;;;;;;5.43;4.03;;;;;;;13.71;84.37;101074.22;5074966;28;20406;-69
2021/06/27 01:18:55;;;;;;;4.50;3.88;;;;;;;14.09;82.33;101078.78;5075446;28;20060;-69
2021/06/27 01:21:24;;;;;;;7.43;4.05;;;;;;;14.10;82.24;101072.59;5074858;28;20434;-69
2021/06/27 01:23:51;;;;;;;7.45;3.95;;;;;;;14.26;81.80;101067.22;5075209;28;20056;-69
2021/06/27 01:26:18;;;;;;;4.50;4.00;;;;;;;14.31;81.25;101059.91;5074845;28;20402;-69
2021/06/27 01:28:44;;;;;;;5.57;3.95;;;;;;;14.46;80.47;101061.50;5075203;28;20491;-69
2021/06/27 01:31:11;;;;;;;4.97;3.80;;;;;;;14.48;80.46;101056.16;5075222;28;20044;-69
2021/06/27 01:33:38;;;;;;;5.65;4.20;;;;;;;14.14;81.96;101061.00;5074978;28;20059;-69
2021/06/27 01:36:06;;;;;;;4.93;4.00;;;;;;;14.17;81.78;101052.94;5075126;28;20495;-69
2021/06/27 01:38:35;;;;;;;5.60;4.20;;;;;;;14.03;83.26;101051.25;5074787;28;20068;-69
2021/06/27 01:41:03;;;;;;;6.20;3.72;;;;;;;13.94;84.00;101052.66;5074957;28;20056;-69
2021/06/27 01:43:30;;;;;;;4.78;3.92;;;;;;;13.98;83.78;101049.88;5074818;28;20114;-69
2021/06/27 01:45:59;;;;;;;7.88;4.03;;;;;;;14.12;82.84;101042.78;5075062;28;20048;-69
2021/06/27 01:48:27;;;;;;;6.65;3.80;;;;;;;14.48;80.91;101038.66;5074214;28;20063;-69
2021/06/27 01:50:56;;;;;;;5.88;4.72;;;;;;;14.47;81.67;101042.25;5074947;28;20052;-69
2021/06/27 01:53:25;;;;;;;5.95;4.20;;;;;;;14.36;82.00;101042.13;5074632;28;20040;-69
2021/06/27 01:56:05;;;;;;;6.63;4.30;;;;;;;14.17;82.93;101034.63;5074462;28;20052;-69
2021/06/27 01:58:34;;;;;;;5.35;4.28;;;;;;;14.21;82.73;101027.44;5073889;28;20066;-69
2021/06/27 02:01:01;;;;;;;6.22;4.22;;;;;;;14.13;83.60;101035.78;5074425;28;20050;-69
2021/06/27 02:03:28;;;;;;;;;;;;;;;14.05;83.96;101036.28;5074585;28;20056;-69
2021/06/27 02:05:55;;;;;;;4.70;3.97;;;;;;;14.27;82.51;101024.41;5074290;28;20366;-69
2021/06/27 02:08:21;;;;;;;4.68;3.58;;;;;;;14.41;82.10;101029.56;5074089;28;20044;-69
2021/06/27 02:10:48;;;;;;;8.43;4.30;;;;;;;14.24;83.33;101022.00;5074324;28;20055;-69
2021/06/27 02:13:17;;;;;;;5.78;3.75;;;;;;;14.29;82.96;101025.97;5073944;28;20528;-69
2021/06/27 02:15:43;;;;;;;5.68;3.88;;;;;;;14.18;83.78;101025.00;5074110;28;20048;-69
2021/06/27 02:18:27;;;;;;;5.07;4.03;;;;;;;14.16;84.08;101028.56;5074314;28;20490;-69
2021/06/27 02:20:55;;;;;;;5.20;4.38;;;;;;;14.15;84.28;101026.03;5074474;28;20173;-69
2021/06/27 02:23:22;;;;;;;4.85;3.83;;;;;;;14.67;81.23;101024.38;5073674;28;20409;-69
2021/06/27 02:25:49;;;;;;;4.63;3.72;;;;;;;14.67;81.45;101024.38;5074250;28;20045;-69
2021/06/27 02:28:17;;;;;;;5.30;3.83;;;;;;;14.92;80.40;101026.97;5074024;28;20052;-69
2021/06/27 02:30:45;;;;;;;6.43;4.20;;;;;;;14.67;81.87;101021.75;5073822;28;20494;-69
2021/06/27 02:33:12;;;;;;;6.10;4.07;;;;;;;14.89;80.55;101021.13;5074222;28;20048;-69
2021/06/27 02:35:38;;;;;;;;;;;;;;;14.76;81.20;101019.34;5074671;28;20049;-69
2021/06/27 02:38:06;;;;;;;7.05;3.88;;;;;;;14.76;81.18;101023.75;5074075;28;19936;-69
2021/06/27 02:40:34;;;;;;;6.78;4.20;;;;;;;14.52;83.40;101016.59;5073579;28;20445;-69
2021/06/27 02:43:00;;;;;;;;;;;;;;;14.51;83.32;101014.91;5074537;28;20052;-69
2021/06/27 02:45:29;;;;;;;5.13;4.28;;;;;;;14.67;81.29;101021.75;5073682;28;19927;-69
2021/06/27 02:47:55;;;;;;;4.18;3.60;;;;;;;14.71;81.17;101018.00;5073483;28;20055;-69
2021/06/27 02:50:22;;;;;;;;;;;;;;;14.61;81.48;101016.94;5073761;28;20119;-69
2021/06/27 02:52:49;;;;;;;4.82;4.00;;;;;;;14.55;83.33;101018.19;5073529;28;20331;-69
2021/06/27 02:55:16;;;;;;;7.45;4.30;;;;;;;14.44;84.54;101015.41;5073128;28;20059;-69
2021/06/27 02:57:43;;;;;;;5.28;4.30;;;;;;;14.53;83.10;101009.59;5073705;28;20044;-69
2021/06/27 03:00:13;;;;;;;6.53;4.78;;;;;;;14.47;84.32;101010.81;5073649;28;20407;-69
2021/06/27 03:02:41;;;;;;;6.10;4.68;;;;;;;14.40;84.75;101012.16;5073159;28;20045;-69
2021/06/27 03:05:10;;;;;;;5.20;4.38;;;;;;;14.55;83.96;101011.16;5073387;28;20049;-69
2021/06/27 03:07:37;;;;;;;7.65;4.45;;;;;;;14.79;81.53;101007.81;5073285;28;20071;-69
2021/06/27 03:10:05;;;;;;;6.28;3.97;;;;;;;14.92;81.51;101013.88;5072706;28;20059;-69
2021/06/27 03:12:32;;;;;;;5.20;4.30;;;;;;;15.01;80.99;101018.50;5072980;28;20049;-69
2021/06/27 03:14:58;;;;;;;;;;;;;;;15.02;80.60;101014.91;5073607;28;20052;-69
2021/06/27 03:17:25;;;;;;;5.53;4.60;;;;;;;14.89;81.63;101027.19;5073295;28;19943;-69
2021/06/27 03:19:53;;;;;;;5.25;4.47;;;;;;;14.71;83.18;101024.06;5073197;28;20059;-69
2021/06/27 03:22:20;;;;;;;6.25;3.83;;;;;;;14.73;82.25;101026.59;5072527;28;20052;-69
2021/06/27 03:24:47;;;;;;;4.88;3.97;;;;;;;15.04;81.28;101025.31;5073164;28;20048;-69
2021/06/27 03:27:14;;;;;;;6.18;4.00;;;;;;;15.30;80.46;101028.72;5072777;28;20059;-69
2021/06/27 03:29:41;;;;;;;;;;;;;;;15.44;79.33;101031.22;5073167;28;20059;-69
2021/06/27 03:32:08;;;;;;;6.03;5.05;;;;;;;15.55;79.07;101030.44;5073187;28;19920;-69
2021/06/27 03:34:35;;;;;;;5.63;4.78;;;;;;;15.61;78.94;101021.28;5072433;28;20056;-69
2021/06/27 03:37:04;;;;;;;7.10;5.10;;;;;;;15.69;78.30;101032.09;5072717;28;20047;-69
2021/06/27 03:39:31;;;;;;;7.05;5.00;;;;;;;15.59;78.87;101029.28;5072524;28;20049;-69
2021/06/27 03:41:58;;;;;;;6.30;5.00;;;;;;;15.70;78.51;101036.41;5072490;28;20041;-69
2021/06/27 03:44:26;;;;;;;5.25;4.63;;;;;;;15.79;78.48;101037.53;5072721;28;20372;-69
2021/06/27 03:46:54;;;;;;;7.68;4.88;;;;;;;15.77;78.57;101047.28;5072799;28;20048;-69
2021/06/27 03:49:21;;;;;;;6.93;5.00;;;;;;;15.78;78.70;101043.72;5072003;28;20147;-69
2021/06/27 03:51:48;;;;;;;7.03;5.10;;;;;;;15.86;79.09;101044.84;5072420;28;20048;-69
2021/06/27 03:54:17;;;;;;;5.63;5.00;;;;;;;16.06;78.42;101039.94;5072016;28;20491;-69
2021/06/27 03:56:44;;;;;;;5.45;4.32;;;;;;;16.17;78.18;101041.75;5072575;28;20074;-69
2021/06/27 03:59:11;;;;;;;;;;;;;;;16.11;78.08;101040.44;5073076;28;20056;-69
2021/06/27 04:01:37;;;;;;;;;;;;;;;16.28;78.41;101037.38;5072809;28;19943;-69
2021/06/27 04:04:04;;;;;;;;;;;;;;;16.31;77.89;101033.69;5072925;28;19920;-69
2021/06/27 04:06:31;;;;;;;;;;;;;;;16.26;77.14;101036.69;5072756;28;19920;-69
2021/06/27 04:08:57;;;;;;;5.72;4.38;;;;;;;16.21;78.29;101035.31;5072462;28;20305;-69
2021/06/27 04:11:26;;;;;;;8.23;4.85;;;;;;;16.21;79.10;101036.19;5071982;28;20070;-69
2021/06/27 04:13:52;;;;;;;5.95;4.07;;;;;;;16.25;77.80;101034.97;5072025;28;20057;-69
2021/06/27 04:16:20;;;;;;;6.60;3.97;;;;;;;16.20;77.15;101029.25;5071851;28;20053;-69
2021/06/27 04:18:46;;;;;;;5.80;4.60;;;;;;;16.26;77.17;101026.19;5072111;28;20059;-69
2021/06/27 04:21:13;;;;;;;9.25;4.13;;;;;;;16.35;75.67;101026.44;5071500;28;20513;-69
2021/06/27 04:23:41;;;;;;;6.45;4.10;;;;;;;16.25;73.24;101016.59;5071795;28;20053;-69
2021/06/27 04:26:08;;;;;;;5.50;3.75;;;;;;;16.41;75.16;101024.16;5071941;28;20086;-69
2021/06/27 04:28:37;;;;;;;5.22;4.13;;;;;;;16.51;75.07;101019.06;5071931;28;20052;-68
2021/06/27 04:31:03;;;;;;;4.85;3.55;;;;;;;16.42;73.80;101019.78;5071882;28;20487;-69
2021/06/27 04:33:30;;;;;;;4.22;3.40;;;;;;;16.74;73.87;101014.69;5071618;28;20502;-69
2021/06/27 04:35:57;;;;;;;;;;;;;;;16.89;66.11;101016.16;5072525;28;20048;-69
2021/06/27 04:38:25;;;;;;;3.28;2.50;;;;;;;17.02;61.94;101009.97;5071895;28;19920;-69
2021/06/27 04:40:52;;;;;;;4.70;2.92;;;;;;;17.16;62.71;101015.81;5072244;28;20052;-69
2021/06/27 04:43:19;;;;;;;3.53;2.63;;;;;;;17.30;63.55;101011.25;5071923;28;20049;-69
2021/06/27 04:45:49;;;;;;;3.47;2.40;;;;;;;17.46;63.02;101006.44;5071706;28;20411;-69
2021/06/27 04:48:16;;;;;;;3.72;2.35;;;;;;;17.48;60.78;100999.25;5071297;28;20502;-69
2021/06/27 04:50:46;;;;;;;6.85;2.88;;;;;;;17.61;61.10;101010.47;5071912;28;20044;-69
2021/06/27 04:53:14;;;;;;;3.38;2.75;;;;;;;17.77;61.00;101009.22;5071905;28;20048;-69
2021/06/27 04:55:40;;;;;;;3.67;2.78;;;;;;;17.89;61.28;100994.28;5071899;28;20059;-69
2021/06/27 04:58:07;;;;;;;;;;;;;;;18.13;62.43;101000.13;5072472;28;20071;-69
2021/06/27 05:00:34;;;;;;;;;;;;;;;18.25;59.39;100996.47;5072117;28;19927;-69
2021/06/27 05:03:02;;;;;;;3.13;2.40;;;;;;;18.47;59.77;100999.94;5071817;28;19924;-69
2021/06/27 05:05:29;;;;;;;6.00;2.60;;;;;;;18.53;57.26;100990.69;5071203;28;20170;-69
2021/06/27 05:07:56;;;;;;;3.60;2.50;;;;;;;18.75;55.18;100995.81;5071790;28;20053;-69
2021/06/27 05:10:23;;;;;;;4.60;2.30;;;;;;;18.78;56.81;100994.72;5071499;28;20045;-69
2021/06/27 05:12:50;;;;;;;2.78;2.15;;;;;;;18.67;55.59;100988.53;5071691;28;20049;-69
2021/06/27 05:15:16;;;;;;;;;;;;;;;18.70;56.01;100984.81;5071912;28;20048;-68
2021/06/27 05:17:43;;;;;;;;;;;;;;;18.48;53.55;100983.19;5071966;28;19928;-69
2021/06/27 05:20:12;;;;;;;;;;;;;;;18.53;51.65;100982.78;5072457;28;19928;-68
2021/06/27 05:22:39;;;;;;;3.55;1.83;;;;;;;18.62;53.52;100985.47;5071079;28;19921;-68
2021/06/27 05:25:06;;;;;;;;;;;;;;;18.79;51.34;100983.22;5072370;28;20048;-69
2021/06/27 05:27:33;;;;;;;2.97;1.70;;;;;;;18.77;51.65;100990.44;5071285;28;19924;-69
2021/06/27 05:30:00;;;;;;;;;;;;;;;18.60;51.88;100983.91;5072120;28;20075;-69
2021/06/27 05:32:26;;;;;;;2.08;1.52;;;;;;;18.79;51.34;100989.31;5071323;28;19920;-69
2021/06/27 05:34:53;;;;;;;;;;;;;;;18.70;50.86;100983.03;5074369;28;20056;-69
2021/06/27 05:37:21;;;;;;;;;;;;;;;18.42;50.61;100981.91;5075699;28;19920;-69
2021/06/27 05:39:48;;;;;;;2.42;1.75;;;;;;;18.42;50.69;100983.69;5075240;28;20310;-68
2021/06/27 05:42:15;;;;;;;;;;;;;;;18.28;50.81;100977.78;5075511;28;20067;-68
2021/06/27 05:44:42;;;;;;;2.33;1.67;;;;;;;18.37;50.19;100980.59;5074536;28;19924;-69
2021/06/27 05:47:08;;;;;;;;;;;;;;;18.39;50.17;100974.25;5075806;28;20052;-68
2021/06/27 05:49:35;;;;;;;;;;;;;;;18.47;50.27;100974.44;5074920;28;19928;-68
2021/06/27 05:52:01;;;;;;;;;;;;;;;18.43;50.85;100974.81;5075228;28;20382;-69
2021/06/27 05:54:29;;;;;;;;;;;;;;;18.54;52.80;100973.91;5075241;28;19920;-69
2021/06/27 05:56:56;;;;;;;2.47;1.52;;;;;;;18.43;49.02;100974.81;5074712;28;19920;-69
2021/06/27 05:59:23;;;;;;;;;;;;;;;18.39;49.46;100971.59;5075171;28;20050;-69
2021/06/27 06:01:49;;;;;;;;;;;;;;;18.31;48.80;100970.59;5075406;28;19921;-69
2021/06/27 06:04:16;;;;;;;;;;;;;;;18.66;49.92;100968.44;5075028;28;19935;-69
2021/06/27 06:06:42;;;;;;;;;;;;;;;18.71;48.83;100973.31;5075304;28;19927;-69
2021/06/27 06:09:09;;;;;;;;;;;;;;;18.62;49.69;100969.66;5075074;28;19921;-69
2021/06/27 06:11:37;;;;;;;;;;;;;;;18.83;49.79;100969.66;5074967;28;19933;-69
2021/06/27 06:14:04;;;;;;;2.60;1.65;;;;;;;18.62;47.88;100971.44;5074522;28;19928;-69
2021/06/27 06:16:30;;;;;;;;;;;;;;;18.55;47.60;100967.66;5074789;28;20055;-68
2021/06/27 06:18:57;;;;;;;;;;;;;;;18.72;46.52;100967.06;5075091;28;19920;-69
2021/06/27 06:21:24;;;;;;;2.58;1.60;;;;;;;18.77;47.12;100959.63;5073948;28;19920;-68
2021/06/27 06:23:50;;;;;;;;;;;;;;;18.77;46.22;100957.00;5074568;28;20041;-69
2021/06/27 06:26:17;;;;;;;;;;;;;;;18.74;48.07;100953.75;5074217;28;20476;-69
2021/06/27 06:28:45;;;;;;;;;;;;;;;18.87;47.65;100957.88;5074851;28;19943;-69
2021/06/27 06:31:12;;;;;;;2.72;1.65;;;;;;;19.05;44.95;100968.59;5073884;28;19920;-69
2021/06/27 06:33:38;;;;;;;;;;;;;;;18.88;44.04;100956.06;5074708;28;20053;-69
2021/06/27 06:36:05;;;;;;;;;;;;;;;18.78;44.73;100952.53;5074744;28;19921;-69
2021/06/27 06:38:33;;;;;;;2.58;1.83;;;;;;;18.88;43.78;100945.50;5073417;28;19924;-69
2021/06/27 06:40:59;;;;;;;5.18;1.80;;;;;;;18.97;44.96;100942.09;5073901;28;20056;-69
2021/06/27 06:43:26;;;;;;;;;;;;;;;19.05;45.36;100939.59;5073906;28;20056;-69
2021/06/27 06:45:54;;;;;;;;;;;;;;;19.40;45.09;100943.56;5072956;28;19931;-69
2021/06/27 06:48:21;;;;;;;5.50;1.63;;;;;;;19.16;45.19;100946.56;5073512;28;20286;-69
2021/06/27 06:50:47;;;;;;;;;;;;;;;19.28;47.68;100945.47;5074402;28;20075;-69
2021/06/27 06:53:14;;;;;;;2.10;1.60;;;;;;;20.00;48.24;100946.09;5073106;28;19926;-69
2021/06/27 06:55:41;;;;;;;;;;;;;;;19.94;45.97;100946.66;5074025;28;20044;-69
2021/06/27 06:58:08;;;;;;;2.17;1.70;;;;;;;20.57;44.53;100948.78;5073408;28;19920;-69
2021/06/27 07:00:35;;;;;;;2.20;1.70;;;;;;;20.58;45.36;100951.28;5073414;28;20044;-69
2021/06/27 07:03:03;;;;;;;2.92;1.75;;;;;;;21.05;43.90;100953.84;5073145;28;20044;-69
2021/06/27 07:05:30;;;;;;;4.63;1.50;;;;;;;21.75;43.02;100961.19;5072986;28;20053;-69
2021/06/27 07:07:57;;;;;;;1.85;1.50;;;;;;;22.41;40.53;100951.94;5073397;28;20048;-69
2021/06/27 07:10:24;;;;;;;1.80;1.33;;;;;;;22.96;39.37;100945.41;5073075;28;20064;-69
2021/06/27 07:12:51;;;;;;;3.20;1.40;;;;;;;23.30;37.03;100950.69;5073488;28;20044;-69
2021/06/27 07:15:18;;;;;;;1.83;1.55;;;;;;;23.69;38.71;100950.06;5073092;28;20049;-69
2021/06/27 07:17:45;;;;;;;1.95;1.25;;;;;;;23.11;35.33;100949.13;5073186;28;20053;-69
2021/06/27 07:20:13;;;;;;;2.85;1.27;;;;;;;23.65;36.79;100957.53;5073253;28;20052;-68
2021/06/27 07:22:40;;;;;;;2.42;1.50;;;;;;;23.68;36.90;100946.56;5071514;28;20044;-68
2021/06/27 07:25:09;;;;;;;1.92;1.33;;;;;;;24.66;33.54;100950.13;5072107;28;20067;-68
2021/06/27 07:27:36;;;;;;;3.17;1.80;;;;;;;24.70;34.50;100949.63;5072726;28;20117;-68
2021/06/27 07:30:04;;;;;;;2.70;1.40;;;;;;;25.27;33.67;100951.22;5072865;28;20079;-68
2021/06/27 07:32:32;;;;;;;2.05;1.10;;;;;;;25.31;30.74;100944.53;5072537;28;20518;-68
2021/06/27 07:34:58;;;;;;;1.52;1.40;;;;;;;25.61;33.05;100939.31;5072678;28;20499;-68
2021/06/27 07:37:27;;;;;;;2.83;1.50;;;;;;;25.67;36.12;100946.63;5072346;28;20044;-68
2021/06/27 07:39:54;;;;;;;1.38;1.13;;;;;;;24.89;33.23;100950.22;5072492;28;20049;-68
2021/06/27 07:42:21;;;;;;;1.27;1.15;;;;;;;23.50;34.21;100937.94;5071692;28;20048;-68
2021/06/27 07:44:48;;;;;;;7.28;1.15;;;;;;;22.58;33.30;100959.00;5068009;28;20044;-68
2021/06/27 07:47:15;;;;;;;2.17;1.40;;;;;;;23.02;33.96;100947.47;5063169;28;20486;-67
2021/06/27 07:49:41;;;;;;;1.52;1.30;;;;;;;24.20;33.16;100945.44;5062197;28;20061;-69
2021/06/27 07:52:10;;;;;;;1.80;1.20;;;;;;;24.81;33.69;100951.06;5052338;28;20048;-68
2021/06/27 07:54:38;;;;;;;2.20;1.60;;;;;;;23.89;34.65;100950.59;5067462;28;20044;-69
2021/06/27 07:57:07;;;;;;;1.83;1.20;;;;;;;25.40;32.77;100950.63;5072259;28;20048;-68
2021/06/27 07:59:34;;;;;;;2.38;1.45;;;;;;;23.16;35.18;100940.69;5072291;28;20060;-69
2021/06/27 08:02:01;;;;;;;1.38;1.13;;;;;;;23.16;34.22;100951.31;5066002;28;20041;-69
2021/06/27 08:04:28;;;;;;;1.50;1.10;;;;;;;23.84;34.58;100944.94;5052123;28;20045;-68
2021/06/27 08:06:55;;;;;;;2.92;1.40;;;;;;;24.36;33.13;100936.59;5052160;28;20049;-67
2021/06/27 08:09:22;;;;;;;1.40;1.20;;;;;;;24.59;32.51;100939.38;5051942;28;20052;-67
2021/06/27 08:11:50;;;;;;;1.33;1.15;;;;;;;25.79;31.09;100942.53;5052417;28;20045;-68
2021/06/27 08:14:17;;;;;;;1.55;1.20;;;;;;;27.30;31.01;100938.69;5052253;28;20403;-68
2021/06/27 08:16:44;;;;;;;2.50;1.20;;;;;;;26.28;29.35;100938.56;5052092;28;20049;-68
2021/06/27 08:19:11;;;;;;;1.25;1.05;;;;;;;27.64;27.85;100939.81;5059041;28;20051;-68
2021/06/27 08:21:38;;;;;;;1.38;0.90;;;;;;;27.68;28.50;100942.94;5071659;28;20490;-68
2021/06/27 08:24:05;;;;;;;5.70;0.90;;;;;;;27.17;25.03;100935.03;5071859;28;20510;-67
2021/06/27 08:26:32;;;;;;;0.95;0.68;;;;;;;26.42;23.49;100936.94;5071863;28;20048;-67
2021/06/27 08:29:00;;;;;;;1.30;0.82;;;;;;;26.79;24.80;100941.34;5072209;28;20130;-67
2021/06/27 08:31:28;;;;;;;1.27;0.63;;;;;;;25.49;24.08;100938.09;5071612;28;20059;-67
2021/06/27 08:33:55;;;;;;;0.90;0.80;;;;;;;26.77;26.06;100937.22;5072210;28;20040;-67
2021/06/27 08:36:22;;;;;;;1.10;0.93;;;;;;;26.70;26.46;100939.81;5071605;28;20063;-67
2021/06/27 08:38:49;;;;;;;2.63;0.90;;;;;;;28.11;24.60;100937.56;5071747;28;20048;-67
2021/06/27 08:41:16;;;;;;;1.25;0.80;;;;;;;28.78;25.34;100933.44;5071772;28;20056;-67
2021/06/27 08:43:45;;;;;;;0.60;0.60;;;;;;;30.08;23.78;100928.69;5071989;28;20056;-67
2021/06/27 08:46:15;;;;;;;1.35;0.90;;;;;;;28.65;27.79;100929.66;5072230;28;20060;-68
2021/06/27 08:48:44;;;;;;;0.90;0.70;;;;;;;28.44;27.40;100914.53;5071386;28;20534;-68
2021/06/27 08:51:11;;;;;;;1.13;0.82;;;;;;;28.57;26.06;100929.03;5071575;28;20502;-68
2021/06/27 08:53:41;;;;;;;1.40;0.80;;;;;;;27.49;28.56;100923.06;5062277;28;20041;-68
2021/06/27 08:56:09;;;;;;;1.52;0.80;;;;;;;26.95;28.32;100926.97;5051929;28;20049;-68
2021/06/27 08:58:37;;;;;;;2.30;1.10;;;;;;;27.11;29.42;100929.41;5051306;28;20049;-68
2021/06/27 09:01:06;;;;;;;2.22;1.20;;;;;;;28.44;28.63;100921.75;5051339;28;20053;-69
2021/06/27 09:03:35;;;;;;;0.85;0.85;;;;;;;29.11;27.19;100922.00;5051400;28;20055;-67
2021/06/27 09:06:02;;;;;;;1.63;1.00;;;;;;;27.83;30.30;100917.00;5051795;28;20098;-68
2021/06/27 09:08:28;;;;;;;1.63;1.00;;;;;;;26.69;30.09;100920.31;5052088;28;20053;-68
2021/06/27 09:10:56;;;;;;;2.03;1.10;;;;;;;27.23;30.42;100911.09;5055420;28;20056;-67
2021/06/27 09:13:39;;;;;;;2.65;1.13;;;;;;;27.43;31.20;100918.47;5054947;28;20049;-66
2021/06/27 09:16:22;;;;;;;2.25;1.10;;;;;;;27.23;30.33;100913.75;5055319;28;20569;-66
2021/06/27 09:18:51;;;;;;;2.08;1.10;;;;;;;26.84;30.29;100908.75;5053924;28;20430;-66
2021/06/27 09:21:18;;;;;;;2.58;1.25;;;;;;;26.56;31.24;100906.78;5054898;28;20053;-66
2021/06/27 09:23:47;;;;;;;1.80;1.30;;;;;;;25.83;31.78;100903.00;5055296;28;20052;-66
2021/06/27 09:26:27;;;;;;;2.25;1.20;;;;;;;25.96;33.40;100905.91;5055371;28;20472;-66
2021/06/27 09:28:54;;;;;;;3.28;1.25;;;;;;;26.68;32.31;100902.63;5055664;28;20053;-66
2021/06/27 09:31:34;;;;;;;1.55;1.20;;;;;;;27.17;31.87;100898.44;5055289;28;20057;-66
2021/06/27 09:34:06;;;;;;;2.65;1.38;;;;;;;28.87;30.35;100905.44;5055151;28;20045;-67
2021/06/27 09:36:34;;;;;;;1.77;1.25;;;;;;;26.78;31.05;100910.34;5054708;28;20072;-67
2021/06/27 09:39:09;;;;;;;2.08;1.30;;;;;;;26.08;33.17;100900.16;5054907;28;20056;-67
2021/06/27 09:41:37;;;;;;;1.38;1.27;;;;;;;26.39;32.07;100910.63;5054707;28;20049;-67
2021/06/27 09:44:05;;;;;;;2.65;1.35;;;;;;;25.34;32.93;100909.56;5054831;28;20041;-68
2021/06/27 09:46:35;;;;;;;1.40;1.10;;;;;;;25.01;34.28;100906.25;5054670;28;20049;-67
2021/06/27 09:49:06;;;;;;;1.38;1.25;;;;;;;24.16;35.48;100906.06;5054805;28;20061;-67
2021/06/27 09:51:35;;;;;;;1.83;1.30;;;;;;;25.09;34.70;100910.69;5054498;28;20815;-67
2021/06/27 09:54:02;;;;;;;2.55;1.30;;;;;;;25.38;35.35;100902.88;5067429;28;20044;-67
2021/06/27 09:56:36;;;;;;;2.33;1.30;;;;;;;26.57;33.60;100903.13;5074644;28;20099;-67
2021/06/27 09:59:05;;;;;;;1.30;1.20;;;;;;;28.66;32.51;100907.22;5074758;28;20126;-68
2021/06/27 10:01:34;;;;;;;1.65;1.13;;;;;;;28.18;30.75;100912.50;5074557;28;20052;-67
2021/06/27 10:04:04;;;;;;;2.35;1.35;;;;;;;26.63;34.88;100914.88;5074370;28;20391;-68
2021/06/27 10:06:33;;;;;;;1.40;1.30;;;;;;;27.66;33.01;100915.59;5074509;28;20045;-67
2021/06/27 10:09:15;;;;;;;1.35;1.25;;;;;;;27.58;34.08;100911.19;5074552;28;20506;-67
2021/06/27 10:11:57;;;;;;;2.05;1.30;;;;;;;28.55;34.40;100912.31;5074248;28;20052;-67
2021/06/27 10:14:25;;;;;;;2.85;1.52;;;;;;;27.82;36.71;100909.97;5074021;28;20287;-67
2021/06/27 10:16:53;;;;;;;2.42;1.40;;;;;;;29.16;36.83;100915.03;5074241;28;20408;-67
2021/06/27 10:19:21;;;;;;;2.75;1.20;;;;;;;30.10;34.92;100905.16;5073935;28;20045;-68
2021/06/27 10:21:49;;;;;;;1.45;1.27;;;;;;;28.32;34.05;100912.59;5074263;28;20062;-67
2021/06/27 10:24:16;;;;;;;2.97;1.30;;;;;;;28.71;35.47;100909.28;5073926;28;20045;-67
2021/06/27 10:26:43;;;;;;;1.92;1.20;;;;;;;29.04;36.51;100909.41;5074425;28;20097;-68
2021/06/27 10:29:11;;;;;;;3.75;1.30;;;;;;;29.24;33.04;100914.03;5074349;28;20052;-67
2021/06/27 10:31:38;;;;;;;2.17;1.30;;;;;;;29.33;34.08;100920.00;5073870;28;20048;-67
2021/06/27 10:34:05;;;;;;;2.22;1.10;;;;;;;29.39;32.33;100916.50;5074182;28;20057;-68
2021/06/27 10:36:37;;;;;;;2.33;1.20;;;;;;;30.21;33.74;100912.56;5073606;28;20418;-68
2021/06/27 10:39:09;;;;;;;2.38;1.35;;;;;;;28.11;35.49;100905.47;5074130;28;20140;-68
2021/06/27 10:41:55;;;;;;;3.20;1.25;;;;;;;27.35;39.66;100906.06;5073521;28;20070;-67
2021/06/27 10:44:24;;;;;;;2.30;1.42;;;;;;;28.15;35.75;100904.03;5073166;28;20051;-67
2021/06/27 10:46:53;;;;;;;1.60;1.30;;;;;;;28.44;35.31;100903.84;5073903;28;20048;-67
2021/06/27 10:50:04;;;;;;;2.35;1.60;;;;;;;28.98;33.68;100915.59;5073356;28;20075;-68
2021/06/27 10:53:00;;;;;;;3.20;1.77;;;;;;;28.46;38.57;100914.31;5072939;28;20542;-68
2021/06/27 10:55:28;;;;;;;2.40;1.50;;;;;;;29.22;35.14;100918.75;5053235;28;20144;-68
2021/06/27 10:58:00;;;;;;;2.85;1.70;;;;;;;29.99;36.50;100913.84;5053281;28;20061;-68
2021/06/27 11:00:29;;;;;;;4.93;1.60;;;;;;;31.42;32.63;100913.75;5053420;28;20049;-69
2021/06/27 11:03:16;;;;;;;2.58;1.58;;;;;;;30.69;33.48;100906.03;5053642;28;20049;-68
2021/06/27 11:05:46;;;;;;;1.92;1.42;;;;;;;27.55;37.56;100911.59;5053210;28;20045;-68
2021/06/27 11:08:31;;;;;;;2.88;1.80;;;;;;;27.72;37.76;100906.78;5053434;28;20085;-68
2021/06/27 11:11:00;;;;;;;3.23;1.80;;;;;;;28.20;36.88;100901.59;5053540;28;20130;-69
2021/06/27 11:13:27;;;;;;;2.22;1.60;;;;;;;29.39;37.87;100903.09;5052805;28;20053;-69
2021/06/27 11:16:11;;;;;;;2.10;1.50;;;;;;;28.62;35.49;100902.47;5053035;28;20052;-69
2021/06/27 11:18:41;;;;;;;2.75;1.85;;;;;;;28.34;36.42;100892.63;5052897;28;20052;-69
2021/06/27 11:21:35;;;;;;;4.25;1.80;;;;;;;28.60;35.90;100894.63;5053214;28;20059;-68
2021/06/27 11:24:07;;;;;;;3.03;1.60;;;;;;;30.37;35.17;100884.50;5052957;28;20443;-69
2021/06/27 11:26:56;;;;;;;2.35;1.60;;;;;;;30.12;33.90;100895.88;5052881;28;20060;-68
2021/06/27 11:29:43;;;;;;;3.17;1.60;;;;;;;31.85;29.62;100886.84;5052610;28;20049;-69
2021/06/27 11:32:43;;;;;;;2.45;1.42;;;;;;;32.10;28.44;100896.78;5052050;28;20045;-69
2021/06/27 11:35:12;;;;;;;2.17;1.52;;;;;;;31.51;30.23;100895.47;5052596;28;20053;-68
2021/06/27 11:37:41;;;;;;;2.00;1.40;;;;;;;28.80;38.76;100904.63;5052924;28;20049;-69
2021/06/27 11:40:10;;;;;;;5.18;2.13;;;;;;;27.63;41.20;100911.44;5052623;28;20098;-69
2021/06/27 11:42:51;;;;;;;2.30;1.58;;;;;;;27.11;40.78;100915.25;5052369;28;20064;-69